Hlavní strana
METAR-TAF:

METAR-TAF

Letiště :

Bodensee

Friedrichshafen, Německo

zeměpisná šířka: 47-40N, zeměpisná délka: 009-31E, výška: 416 m

Aktuální stav počasí

Zpráva byla vytvořena před 23 minutami, v 10:50 UTC
Západojihozápadní vítr 4 kt
Teplota 23°C
Vlhkost vzduchu 61%
Tlak 1018 hPa
Viditelnost 10 km a více
Skoro jasno ve výšce 4000 ft

METAR: EDNY 251050Z 24004KT 9999 FEW040 23/15 Q1018

Čas: 13:13 (11:13 UTC)

Předpověď počasí

Zpráva byla vytvořena před 6 hodinami a 13 minutami, v 05:00 UTC
Předpověď platná od 25 v 06 UTC do 26 v 06 UTC
Severovýchodní vítr 3 kt
Viditelnost 10 km a více
Skoro jasno ve výšce 4000 ft
Dočasný
od 25 v 10 UTC do 25 v 15 UTC
Západojihozápadní vítr 5 kt

TAF: EDNY 250500Z 2506/2606 05003KT 9999 FEW040 TEMPO 2510/2515 24005KT

Stav a předpovědi počasí z více než 4 000 letišť (zprávy METAR a TAF).

Červené a žluté tečky na mapě představují dostupné meteorologické stanice.

Když kurzor umístíte na tečku, zobrazí se název stanice.

Pak kliknutím zobrazíte stav a předpověď počasí.

Chcete-li změnit mapu, kliknutím na zelené tlačítko se znaménkem +mapu přiblížíte, kliknutím na zelené tlačítko se znaménkem – mapu oddálíte a kliknutím na zelené šipky přejdete na sousední mapy.


METAR-TAF: